Time;durP1;ratioP1;P1;durP2;ratioP2;P2;SDS_P1;SDS_P2;PMS_P1;PMS_P2;Temp;Humidity;BMP_temperature;BMP_pressure;BME280_temperature;BME280_humidity;BME280_pressure;Samples;Min_cycle;Max_cycle;Signal;HPM_P1;HPM_P2
2022/05/10 00:02:10;;;;;;;12.50;8.47;;;;;;;;;;777374;179;919351;-64
2022/05/10 00:04:35;;;;;;;13.33;7.70;;;;;;;;;;777422;178;919513;-64
2022/05/10 00:07:01;;;;;;;12.47;7.90;;;;;;;;;;778944;177;919346;-64
2022/05/10 00:09:29;;;;;;;11.80;7.13;;;;;;;;;;785785;179;918962;-64
2022/05/10 00:11:53;;;;;;;12.90;7.33;;;;;;;;;;781988;179;919705;-64
2022/05/10 00:14:19;;;;;;;7.82;6.37;;;;;;;;;;779587;179;919064;-64
2022/05/10 00:16:45;;;;;;;9.40;6.97;;;;;;;;;;783974;179;919460;-64
2022/05/10 00:19:10;;;;;;;11.82;6.78;;;;;;;;;;776482;179;919255;-64
2022/05/10 00:21:36;;;;;;;11.93;7.50;;;;;;;;;;771951;180;919623;-64
2022/05/10 00:24:02;;;;;;;9.97;6.83;;;;;;;;;;777690;178;919519;-63
2022/05/10 00:26:28;;;;;;;10.70;6.60;;;;;;;;;;771858;180;919989;-64
2022/05/10 00:28:54;;;;;;;13.00;6.53;;;;;;;;;;770292;180;919398;-64
2022/05/10 00:31:20;;;;;;;10.77;6.80;;;;;;;;;;766369;182;919366;-63
2022/05/10 00:33:45;;;;;;;7.80;6.03;;;;;;;;;;768202;180;919588;-64
2022/05/10 00:36:11;;;;;;;12.60;7.43;;;;;;;;;;773102;180;920246;-65
2022/05/10 00:38:38;;;;;;;9.23;7.30;;;;;;;;;;771430;180;926336;-63
2022/05/10 00:41:03;;;;;;;11.50;7.90;;;;;;;;;;770085;183;919357;-64
2022/05/10 00:43:29;;;;;;;12.43;6.80;;;;;;;;;;763474;183;918682;-64
2022/05/10 00:45:55;;;;;;;7.40;6.03;;;;;;;;;;764057;181;918035;-63
2022/05/10 00:48:24;;;;;;;9.70;7.37;;;;;;;;;;769886;182;919967;-64
2022/05/10 00:50:50;;;;;;;6.93;5.47;;;;;;;;;;764535;181;943319;-65
2022/05/10 00:53:18;;;;;;;10.13;6.20;;;;;;;;;;766723;182;918952;-65
2022/05/10 00:56:01;;;;;;;10.00;6.20;;;;;;;;;;771087;177;919325;-65
2022/05/10 00:58:37;;;;;;;12.93;6.70;;;;;;;;;;773397;180;919034;-64
2022/05/10 01:01:03;;;;;;;9.80;7.25;;;;;;;;;;780497;178;629384;-65
2022/05/10 01:03:29;;;;;;;10.53;6.80;;;;;;;;;;769967;181;625718;-65
2022/05/10 01:05:59;;;;;;;13.80;7.10;;;;;;;;;;779737;176;642519;-66
2022/05/10 01:08:24;;;;;;;9.67;6.80;;;;;;;;;;780904;177;622837;-66
2022/05/10 01:11:01;;;;;;;12.17;7.43;;;;;;;;;;783960;179;615918;-65
2022/05/10 01:13:28;;;;;;;9.87;6.53;;;;;;;;;;779029;179;919197;-64
2022/05/10 01:15:54;;;;;;;8.90;6.83;;;;;;;;;;772784;179;1022005;-64
2022/05/10 01:18:19;;;;;;;8.70;6.90;;;;;;;;;;775338;179;920776;-64
2022/05/10 01:20:45;;;;;;;13.88;7.90;;;;;;;;;;778332;179;1140659;-64
2022/05/10 01:23:31;;;;;;;8.80;7.33;;;;;;;;;;777858;179;919846;-64
2022/05/10 01:25:57;;;;;;;9.53;8.20;;;;;;;;;;770001;178;919758;-65
2022/05/10 01:28:24;;;;;;;14.40;9.17;;;;;;;;;;773610;180;919772;-65
2022/05/10 01:30:50;;;;;;;8.73;6.77;;;;;;;;;;773999;180;919448;-65
2022/05/10 01:36:05;;;;;;;13.83;7.17;;;;;;;;;;775614;179;919410;-65
2022/05/10 01:38:31;;;;;;;14.50;9.87;;;;;;;;;;773400;178;919258;-65
2022/05/10 01:40:56;;;;;;;13.70;6.93;;;;;;;;;;772571;180;919448;-65
2022/05/10 01:43:38;;;;;;;9.00;7.07;;;;;;;;;;778197;180;923821;-66
2022/05/10 01:46:04;;;;;;;12.53;7.53;;;;;;;;;;777496;180;919174;-66
2022/05/10 01:48:30;;;;;;;10.73;7.67;;;;;;;;;;772558;180;1021834;-64
2022/05/10 01:50:56;;;;;;;8.60;6.47;;;;;;;;;;775708;180;919303;-65
2022/05/10 01:53:28;;;;;;;10.43;6.70;;;;;;;;;;772798;180;919599;-65
2022/05/10 01:55:54;;;;;;;10.20;8.00;;;;;;;;;;770335;181;919142;-65
2022/05/10 01:58:20;;;;;;;15.57;7.37;;;;;;;;;;771752;180;1174021;-65
2022/05/10 02:00:46;;;;;;;10.52;7.47;;;;;;;;;;773698;179;1024129;-65
2022/05/10 02:03:12;;;;;;;16.63;6.70;;;;;;;;;;780007;179;919345;-65
2022/05/10 02:05:43;;;;;;;9.30;6.95;;;;;;;;;;775194;179;919545;-65
2022/05/10 02:08:10;;;;;;;13.43;7.40;;;;;;;;;;775726;179;920303;-66
2022/05/10 02:10:37;;;;;;;12.93;8.33;;;;;;;;;;773159;180;946839;-65
2022/05/10 02:13:03;;;;;;;12.83;8.20;;;;;;;;;;781111;179;919659;-65
2022/05/10 02:15:29;;;;;;;13.83;8.87;;;;;;;;;;777806;179;918749;-66
2022/05/10 02:18:05;;;;;;;16.97;7.63;;;;;;;;;;774380;179;918697;-66
2022/05/10 02:20:34;;;;;;;8.57;7.67;;;;;;;;;;773686;179;921064;-66
2022/05/10 02:23:00;;;;;;;9.10;7.33;;;;;;;;;;781728;179;919781;-66
2022/05/10 02:25:26;;;;;;;9.13;7.37;;;;;;;;;;773491;180;920347;-67
2022/05/10 02:27:52;;;;;;;21.67;12.03;;;;;;;;;;776690;179;920910;-66
2022/05/10 02:30:18;;;;;;;13.00;9.48;;;;;;;;;;777759;179;917747;-65
2022/05/10 02:35:16;;;;;;;13.70;8.30;;;;;;;;;;769635;180;1022251;-66
2022/05/10 02:37:42;;;;;;;11.80;8.00;;;;;;;;;;767999;179;920167;-66
2022/05/10 02:40:08;;;;;;;12.30;8.67;;;;;;;;;;780347;180;920762;-66
2022/05/10 02:42:34;;;;;;;12.23;8.20;;;;;;;;;;777896;179;921785;-66
2022/05/10 02:45:00;;;;;;;11.27;7.77;;;;;;;;;;774548;179;921495;-66
2022/05/10 02:47:27;;;;;;;12.85;10.82;;;;;;;;;;777626;177;912622;-66
2022/05/10 02:49:53;;;;;;;15.03;10.67;;;;;;;;;;775682;180;912261;-67
2022/05/10 02:52:19;;;;;;;11.30;7.53;;;;;;;;;;773061;179;920758;-66
2022/05/10 02:54:45;;;;;;;9.03;7.23;;;;;;;;;;775332;179;918900;-66
2022/05/10 02:57:11;;;;;;;8.73;7.03;;;;;;;;;;782309;179;920151;-66
2022/05/10 02:59:37;;;;;;;8.50;7.30;;;;;;;;;;774954;179;919845;-68
2022/05/10 03:02:03;;;;;;;14.77;10.40;;;;;;;;;;775732;178;932934;-66
2022/05/10 03:04:32;;;;;;;10.90;7.77;;;;;;;;;;784049;179;919586;-67
2022/05/10 03:06:58;;;;;;;10.20;8.00;;;;;;;;;;776556;180;919363;-66
2022/05/10 03:09:24;;;;;;;10.73;7.87;;;;;;;;;;777285;180;919512;-66
2022/05/10 03:11:49;;;;;;;9.10;7.50;;;;;;;;;;773786;180;918751;-66
2022/05/10 03:14:15;;;;;;;11.97;8.53;;;;;;;;;;779913;179;918963;-66
2022/05/10 03:16:41;;;;;;;16.40;8.20;;;;;;;;;;775257;179;919407;-66
2022/05/10 03:19:07;;;;;;;11.50;8.50;;;;;;;;;;764715;181;919328;-67
2022/05/10 03:21:33;;;;;;;14.57;11.27;;;;;;;;;;772210;180;918480;-66
2022/05/10 03:23:59;;;;;;;10.60;9.00;;;;;;;;;;780459;178;919877;-67
2022/05/10 03:26:25;;;;;;;14.80;8.15;;;;;;;;;;778126;179;918512;-67
2022/05/10 03:28:50;;;;;;;14.70;8.83;;;;;;;;;;785750;179;619360;-69
2022/05/10 03:31:16;;;;;;;12.07;9.30;;;;;;;;;;780704;179;627182;-67
2022/05/10 03:33:42;;;;;;;12.33;9.00;;;;;;;;;;776421;177;628390;-67
2022/05/10 03:36:08;;;;;;;15.20;9.63;;;;;;;;;;779128;178;623590;-67
2022/05/10 03:38:35;;;;;;;18.17;9.30;;;;;;;;;;779296;179;633745;-68
2022/05/10 03:40:59;;;;;;;14.50;8.80;;;;;;;;;;776341;179;918269;-67
2022/05/10 03:43:27;;;;;;;9.73;8.50;;;;;;;;;;774807;180;917734;-66
2022/05/10 03:45:51;;;;;;;16.80;11.37;;;;;;;;;;782237;179;918771;-66
2022/05/10 03:48:17;;;;;;;15.47;12.03;;;;;;;;;;777461;179;919593;-66
2022/05/10 03:50:43;;;;;;;16.27;12.43;;;;;;;;;;776657;180;919528;-67
2022/05/10 03:53:09;;;;;;;23.67;15.93;;;;;;;;;;780214;178;919584;-67
2022/05/10 03:55:35;;;;;;;21.43;16.30;;;;;;;;;;776286;179;918520;-67
2022/05/10 03:58:00;;;;;;;25.88;19.55;;;;;;;;;;776026;179;921440;-66
2022/05/10 04:00:27;;;;;;;31.60;21.15;;;;;;;;;;777082;179;919168;-65
2022/05/10 04:02:53;;;;;;;28.10;20.33;;;;;;;;;;766514;182;920266;-66
2022/05/10 04:05:19;;;;;;;25.80;19.83;;;;;;;;;;775444;179;920762;-66
2022/05/10 04:07:44;;;;;;;26.48;20.05;;;;;;;;;;773580;178;917126;-67
2022/05/10 04:10:10;;;;;;;26.93;17.93;;;;;;;;;;781465;177;917140;-67
2022/05/10 04:12:36;;;;;;;25.60;19.63;;;;;;;;;;774516;179;916779;-65
2022/05/10 04:15:02;;;;;;;23.63;17.10;;;;;;;;;;773592;178;921104;-65
2022/05/10 04:17:28;;;;;;;32.17;19.87;;;;;;;;;;779060;178;1021140;-66
2022/05/10 04:19:54;;;;;;;30.50;21.70;;;;;;;;;;773340;179;995445;-66
2022/05/10 04:22:20;;;;;;;37.80;22.10;;;;;;;;;;772540;179;922111;-65
2022/05/10 04:24:45;;;;;;;23.70;19.27;;;;;;;;;;776854;179;919634;-66
2022/05/10 04:27:11;;;;;;;29.20;19.70;;;;;;;;;;772990;180;919191;-66
2022/05/10 04:29:37;;;;;;;30.23;20.00;;;;;;;;;;773672;180;919957;-65
2022/05/10 04:32:03;;;;;;;23.90;18.70;;;;;;;;;;771913;180;923777;-65
2022/05/10 04:34:29;;;;;;;21.00;18.10;;;;;;;;;;780680;180;918837;-67
2022/05/10 04:36:55;;;;;;;24.27;19.10;;;;;;;;;;780691;178;918560;-66
2022/05/10 04:39:21;;;;;;;20.27;16.97;;;;;;;;;;776915;179;919299;-65
2022/05/10 04:41:47;;;;;;;24.83;19.27;;;;;;;;;;782942;179;919183;-65
2022/05/10 04:44:12;;;;;;;33.33;18.03;;;;;;;;;;778856;179;919247;-66
2022/05/10 04:46:38;;;;;;;28.30;18.43;;;;;;;;;;777609;179;918744;-66
2022/05/10 04:49:04;;;;;;;25.27;17.90;;;;;;;;;;782907;180;627134;-65
2022/05/10 04:51:30;;;;;;;21.07;16.50;;;;;;;;;;780325;179;645076;-66
2022/05/10 04:53:56;;;;;;;27.83;15.07;;;;;;;;;;773656;180;1232074;-66
2022/05/10 04:56:22;;;;;;;29.80;17.60;;;;;;;;;;775409;179;919601;-65
2022/05/10 04:58:47;;;;;;;26.83;17.47;;;;;;;;;;779992;178;719366;-67
2022/05/10 05:01:13;;;;;;;18.13;15.27;;;;;;;;;;780344;179;816549;-65
2022/05/10 05:03:39;;;;;;;18.52;14.57;;;;;;;;;;775171;179;919440;-68
2022/05/10 05:06:05;;;;;;;21.60;16.37;;;;;;;;;;779410;180;640270;-66
2022/05/10 05:08:31;;;;;;;22.70;15.93;;;;;;;;;;775621;179;625486;-67
2022/05/10 05:10:57;;;;;;;20.30;14.63;;;;;;;;;;779310;178;624698;-67
2022/05/10 05:13:24;;;;;;;22.30;13.87;;;;;;;;;;784175;177;622896;-67
2022/05/10 05:15:49;;;;;;;21.10;14.43;;;;;;;;;;780770;179;621103;-67
2022/05/10 05:18:15;;;;;;;24.07;15.67;;;;;;;;;;780567;179;649193;-66
2022/05/10 05:20:41;;;;;;;23.20;15.77;;;;;;;;;;778668;179;684303;-66
2022/05/10 05:23:09;;;;;;;22.70;16.00;;;;;;;;;;776639;179;630755;-66
2022/05/10 05:25:33;;;;;;;20.13;14.40;;;;;;;;;;778182;179;624351;-66
2022/05/10 05:27:58;;;;;;;23.42;13.90;;;;;;;;;;775382;179;1122891;-66
2022/05/10 05:30:24;;;;;;;17.97;14.37;;;;;;;;;;779588;179;919288;-65
2022/05/10 05:32:50;;;;;;;20.23;15.20;;;;;;;;;;775032;178;919857;-65
2022/05/10 05:35:16;;;;;;;24.37;14.07;;;;;;;;;;774374;179;1012633;-66
2022/05/10 05:37:42;;;;;;;20.73;12.80;;;;;;;;;;778836;180;918341;-69
2022/05/10 05:40:08;;;;;;;20.27;12.20;;;;;;;;;;776347;177;919552;-66
2022/05/10 05:42:34;;;;;;;18.52;13.75;;;;;;;;;;775016;179;919255;-66
2022/05/10 05:45:00;;;;;;;17.55;12.82;;;;;;;;;;777006;179;919540;-64
2022/05/10 05:47:26;;;;;;;22.37;13.47;;;;;;;;;;776317;179;918163;-67
2022/05/10 05:49:52;;;;;;;18.53;12.90;;;;;;;;;;775648;179;1021777;-67
2022/05/10 05:52:20;;;;;;;27.37;12.97;;;;;;;;;;776240;179;919418;-66
2022/05/10 05:54:44;;;;;;;19.20;12.30;;;;;;;;;;781920;179;919896;-69
2022/05/10 05:57:09;;;;;;;14.60;10.00;;;;;;;;;;774775;179;935048;-67
2022/05/10 05:59:35;;;;;;;13.47;11.00;;;;;;;;;;774101;179;919468;-67
2022/05/10 06:02:01;;;;;;;15.10;11.70;;;;;;;;;;780784;179;919670;-67
2022/05/10 06:04:27;;;;;;;23.97;12.10;;;;;;;;;;774135;181;919591;-67
2022/05/10 06:06:53;;;;;;;21.92;12.85;;;;;;;;;;771760;180;919002;-68
2022/05/10 06:09:22;;;;;;;22.27;13.33;;;;;;;;;;775966;180;918863;-67
2022/05/10 06:11:45;;;;;;;22.00;12.40;;;;;;;;;;777302;179;919641;-67
2022/05/10 06:14:11;;;;;;;16.80;12.80;;;;;;;;;;777794;179;919196;-66
2022/05/10 06:16:37;;;;;;;21.75;13.30;;;;;;;;;;775377;179;918956;-66
2022/05/10 06:19:03;;;;;;;15.27;13.10;;;;;;;;;;779297;180;919560;-66
2022/05/10 06:21:29;;;;;;;19.40;13.67;;;;;;;;;;774952;178;919761;-67
2022/05/10 06:23:54;;;;;;;19.85;14.25;;;;;;;;;;778402;179;816544;-67
2022/05/10 06:26:20;;;;;;;16.97;11.80;;;;;;;;;;780976;178;919537;-68
2022/05/10 06:28:46;;;;;;;14.97;11.73;;;;;;;;;;777017;179;918540;-68
2022/05/10 06:31:12;;;;;;;19.90;11.37;;;;;;;;;;774975;180;921210;-68
2022/05/10 06:33:38;;;;;;;19.10;12.10;;;;;;;;;;784801;179;621611;-68
2022/05/10 06:36:04;;;;;;;20.03;12.40;;;;;;;;;;778843;179;627604;-68
2022/05/10 06:38:30;;;;;;;15.88;11.68;;;;;;;;;;775353;179;910008;-68
2022/05/10 06:40:55;;;;;;;16.63;10.53;;;;;;;;;;773239;179;919336;-68
2022/05/10 06:43:21;;;;;;;18.97;12.90;;;;;;;;;;779443;180;918872;-67
2022/05/10 06:45:47;;;;;;;16.07;10.50;;;;;;;;;;772895;180;919559;-68
2022/05/10 06:48:13;;;;;;;20.70;12.50;;;;;;;;;;777037;179;919281;-67
2022/05/10 06:50:39;;;;;;;16.80;12.30;;;;;;;;;;779216;180;918895;-68
2022/05/10 06:53:05;;;;;;;16.33;11.77;;;;;;;;;;775925;177;918005;-69
2022/05/10 06:55:31;;;;;;;15.83;11.20;;;;;;;;;;774638;180;919968;-69
2022/05/10 06:57:56;;;;;;;18.60;11.43;;;;;;;;;;779956;179;919006;-68
2022/05/10 07:00:22;;;;;;;18.40;11.20;;;;;;;;;;778645;178;920065;-68
2022/05/10 07:02:48;;;;;;;17.77;10.65;;;;;;;;;;772432;179;918604;-68
2022/05/10 07:05:14;;;;;;;13.17;10.40;;;;;;;;;;776963;179;919428;-68
2022/05/10 07:07:40;;;;;;;14.50;10.83;;;;;;;;;;766424;180;919469;-68
2022/05/10 07:10:10;;;;;;;17.27;11.07;;;;;;;;;;771626;180;920071;-69
2022/05/10 07:12:34;;;;;;;22.27;10.75;;;;;;;;;;772486;179;920455;-68
2022/05/10 07:15:00;;;;;;;19.47;11.40;;;;;;;;;;782616;179;917666;-68
2022/05/10 07:17:26;;;;;;;26.73;11.63;;;;;;;;;;774987;178;918888;-70
2022/05/10 07:19:51;;;;;;;13.10;9.80;;;;;;;;;;776853;177;921662;-68
2022/05/10 07:22:17;;;;;;;12.17;10.80;;;;;;;;;;780497;177;915849;-70
2022/05/10 07:24:43;;;;;;;16.27;10.10;;;;;;;;;;773075;177;918542;-68
2022/05/10 07:27:09;;;;;;;13.97;10.50;;;;;;;;;;774141;180;918825;-69
2022/05/10 07:29:35;;;;;;;16.37;11.23;;;;;;;;;;776518;177;914545;-69
2022/05/10 07:32:01;;;;;;;19.33;11.57;;;;;;;;;;773568;179;916397;-69
2022/05/10 07:34:27;;;;;;;16.20;10.37;;;;;;;;;;773145;177;922508;-68
2022/05/10 07:36:52;;;;;;;16.67;11.50;;;;;;;;;;772919;179;912336;-69
2022/05/10 07:39:20;;;;;;;15.97;10.50;;;;;;;;;;780062;179;915664;-70
2022/05/10 07:41:44;;;;;;;13.60;8.90;;;;;;;;;;775696;179;919475;-69
2022/05/10 07:44:10;;;;;;;10.53;8.60;;;;;;;;;;773574;180;919151;-71
2022/05/10 07:46:36;;;;;;;18.50;10.07;;;;;;;;;;777628;180;919459;-69
2022/05/10 07:49:02;;;;;;;13.60;8.73;;;;;;;;;;773029;180;921724;-69
2022/05/10 07:51:27;;;;;;;12.20;8.07;;;;;;;;;;773455;179;1010223;-70
2022/05/10 07:53:54;;;;;;;14.00;9.65;;;;;;;;;;777513;180;920420;-69
2022/05/10 07:56:20;;;;;;;15.43;8.73;;;;;;;;;;774244;180;920695;-70
2022/05/10 07:58:46;;;;;;;17.07;8.60;;;;;;;;;;773485;180;919300;-71
2022/05/10 08:01:11;;;;;;;14.87;7.95;;;;;;;;;;776134;179;920028;-69
2022/05/10 08:03:37;;;;;;;11.77;9.03;;;;;;;;;;780238;179;919507;-70
2022/05/10 08:06:03;;;;;;;15.53;8.50;;;;;;;;;;776297;180;918325;-70
2022/05/10 08:08:29;;;;;;;19.50;9.10;;;;;;;;;;776560;179;919777;-71
2022/05/10 08:10:55;;;;;;;12.37;7.73;;;;;;;;;;783440;178;918619;-70
2022/05/10 08:13:21;;;;;;;14.50;7.50;;;;;;;;;;774747;179;919800;-69
2022/05/10 08:15:47;;;;;;;7.97;5.05;;;;;;;;;;774457;179;920939;-71
2022/05/10 08:18:13;;;;;;;10.40;6.10;;;;;;;;;;780817;179;925146;-69
2022/05/10 08:20:39;;;;;;;8.60;5.43;;;;;;;;;;774236;179;920390;-70
2022/05/10 08:23:06;;;;;;;11.90;6.70;;;;;;;;;;775033;179;919594;-69
2022/05/10 08:25:31;;;;;;;15.60;7.97;;;;;;;;;;773413;180;917377;-71
2022/05/10 08:27:57;;;;;;;21.43;7.17;;;;;;;;;;782647;180;918925;-71
2022/05/10 08:30:22;;;;;;;9.60;6.67;;;;;;;;;;775505;179;919098;-71
2022/05/10 08:32:48;;;;;;;18.47;6.37;;;;;;;;;;774587;179;920781;-71
2022/05/10 08:35:14;;;;;;;11.60;6.90;;;;;;;;;;780463;179;921888;-70
2022/05/10 08:37:40;;;;;;;9.40;5.63;;;;;;;;;;774518;176;916772;-72
2022/05/10 08:40:06;;;;;;;11.47;5.40;;;;;;;;;;772594;180;916076;-72
2022/05/10 08:42:33;;;;;;;12.70;8.10;;;;;;;;;;780284;177;913271;-72
2022/05/10 08:44:58;;;;;;;14.73;8.07;;;;;;;;;;775753;179;914161;-71
2022/05/10 08:47:24;;;;;;;12.60;7.43;;;;;;;;;;773260;178;913497;-70
2022/05/10 08:49:50;;;;;;;14.90;9.07;;;;;;;;;;772231;180;914986;-70
2022/05/10 08:52:16;;;;;;;10.33;7.00;;;;;;;;;;779305;179;900878;-70
2022/05/10 08:54:41;;;;;;;11.50;7.37;;;;;;;;;;774272;178;914359;-71
2022/05/10 08:57:09;;;;;;;8.13;5.40;;;;;;;;;;775339;180;967434;-72
2022/05/10 08:59:40;;;;;;;11.63;6.40;;;;;;;;;;780078;178;1037040;-72
2022/05/10 09:02:08;;;;;;;13.13;6.50;;;;;;;;;;774418;179;919562;-71
2022/05/10 09:04:33;;;;;;;12.73;6.97;;;;;;;;;;774693;179;919092;-70
2022/05/10 09:06:59;;;;;;;12.03;5.67;;;;;;;;;;774615;179;922679;-70
2022/05/10 09:09:25;;;;;;;9.40;4.23;;;;;;;;;;778673;180;918400;-71
2022/05/10 09:11:52;;;;;;;16.00;5.63;;;;;;;;;;772803;178;919377;-71
2022/05/10 09:14:17;;;;;;;12.70;4.90;;;;;;;;;;773200;178;928367;-71
2022/05/10 09:16:43;;;;;;;9.90;3.97;;;;;;;;;;777885;179;918251;-73
2022/05/10 09:19:09;;;;;;;13.67;5.43;;;;;;;;;;776125;179;919028;-72
2022/05/10 09:21:37;;;;;;;8.57;4.37;;;;;;;;;;778731;178;1146169;-72
2022/05/10 09:24:06;;;;;;;10.03;5.17;;;;;;;;;;776605;179;919792;-71
2022/05/10 09:26:35;;;;;;;12.70;4.83;;;;;;;;;;775234;179;918912;-71
2022/05/10 09:29:01;;;;;;;9.60;4.70;;;;;;;;;;777387;177;1122018;-72
2022/05/10 09:36:37;;;;;;;9.43;5.17;;;;;;;;;;778790;180;916833;-72
2022/05/10 09:39:14;;;;;;;11.07;4.60;;;;;;;;;;775638;179;920149;-71
2022/05/10 09:41:41;;;;;;;12.30;4.40;;;;;;;;;;775566;179;1016058;-72
2022/05/10 09:44:12;;;;;;;9.47;4.70;;;;;;;;;;772285;179;921572;-71
2022/05/10 09:46:38;;;;;;;8.67;4.33;;;;;;;;;;774410;179;915852;-70
2022/05/10 09:49:04;;;;;;;9.60;4.97;;;;;;;;;;780390;179;627168;-69
2022/05/10 09:51:30;;;;;;;10.07;3.63;;;;;;;;;;774652;180;918894;-71
2022/05/10 09:53:56;;;;;;;7.73;4.10;;;;;;;;;;775436;179;918763;-71
2022/05/10 09:56:31;;;;;;;11.27;4.53;;;;;;;;;;783604;177;919619;-69
2022/05/10 09:58:57;;;;;;;9.67;4.60;;;;;;;;;;781629;180;630976;-70
2022/05/10 10:01:29;;;;;;;8.70;5.13;;;;;;;;;;778937;179;618876;-72
2022/05/10 10:03:55;;;;;;;10.30;5.00;;;;;;;;;;779607;179;628103;-70
2022/05/10 10:06:21;;;;;;;12.67;5.10;;;;;;;;;;778280;179;924410;-71
2022/05/10 10:08:48;;;;;;;10.43;3.63;;;;;;;;;;775745;179;919435;-73
2022/05/10 10:11:20;;;;;;;7.70;4.50;;;;;;;;;;774362;179;918926;-72
2022/05/10 10:13:46;;;;;;;5.93;4.30;;;;;;;;;;773850;179;927501;-71
2022/05/10 10:16:15;;;;;;;12.50;5.03;;;;;;;;;;782631;180;918428;-70
2022/05/10 10:18:43;;;;;;;10.30;4.07;;;;;;;;;;775118;180;919495;-71
2022/05/10 10:21:09;;;;;;;17.87;5.27;;;;;;;;;;772218;178;920796;-71
2022/05/10 10:23:37;;;;;;;12.10;6.07;;;;;;;;;;773948;179;918557;-72
2022/05/10 10:26:03;;;;;;;12.70;4.93;;;;;;;;;;778902;179;920376;-71
2022/05/10 10:28:31;;;;;;;21.53;5.87;;;;;;;;;;774481;179;920520;-71
2022/05/10 10:31:00;;;;;;;10.70;4.53;;;;;;;;;;773084;179;933902;-71
2022/05/10 10:33:41;;;;;;;12.03;4.63;;;;;;;;;;781435;178;920331;-74
2022/05/10 10:36:07;;;;;;;6.73;4.50;;;;;;;;;;780947;179;918332;-71
2022/05/10 10:38:40;;;;;;;10.10;4.73;;;;;;;;;;776632;178;919468;-72
2022/05/10 10:41:05;;;;;;;8.47;4.40;;;;;;;;;;776599;179;918655;-71
2022/05/10 10:43:44;;;;;;;6.73;4.87;;;;;;;;;;777679;179;917888;-70
2022/05/10 10:46:16;;;;;;;15.93;5.25;;;;;;;;;;771054;179;919231;-72
2022/05/10 10:48:42;;;;;;;9.50;4.73;;;;;;;;;;784552;178;919233;-71
2022/05/10 10:51:09;;;;;;;9.13;5.10;;;;;;;;;;775106;179;919478;-72
2022/05/10 10:53:35;;;;;;;12.67;4.80;;;;;;;;;;780711;179;622548;-72
2022/05/10 10:56:19;;;;;;;8.03;4.97;;;;;;;;;;775666;179;918988;-72
2022/05/10 10:58:50;;;;;;;7.50;4.60;;;;;;;;;;760117;177;919158;-71
2022/05/10 11:01:22;;;;;;;6.93;4.77;;;;;;;;;;775031;179;919330;-72
2022/05/10 11:03:54;;;;;;;8.43;4.83;;;;;;;;;;772383;180;918969;-72
2022/05/10 11:06:20;;;;;;;9.13;5.57;;;;;;;;;;774972;179;920090;-71
2022/05/10 11:08:53;;;;;;;9.50;4.90;;;;;;;;;;779078;179;626989;-73
2022/05/10 11:11:18;;;;;;;8.70;4.73;;;;;;;;;;779947;179;634004;-72
2022/05/10 11:14:01;;;;;;;10.13;4.77;;;;;;;;;;776891;179;918993;-71
2022/05/10 11:16:28;;;;;;;6.67;4.90;;;;;;;;;;764183;179;919166;-71
2022/05/10 11:18:56;;;;;;;9.83;3.73;;;;;;;;;;772220;180;918848;-70
2022/05/10 11:21:24;;;;;;;15.70;5.10;;;;;;;;;;773701;179;918825;-70
2022/05/10 11:24:05;;;;;;;9.53;5.77;;;;;;;;;;778053;178;1123325;-72
2022/05/10 11:26:31;;;;;;;10.70;5.13;;;;;;;;;;780020;179;923551;-73
2022/05/10 11:28:57;;;;;;;10.67;4.90;;;;;;;;;;773648;179;919685;-72
2022/05/10 11:31:25;;;;;;;9.03;4.27;;;;;;;;;;773569;180;919100;-71
2022/05/10 11:33:55;;;;;;;7.77;5.10;;;;;;;;;;776669;180;919432;-73
2022/05/10 11:36:23;;;;;;;9.20;4.43;;;;;;;;;;774537;178;918610;-72
2022/05/10 11:39:04;;;;;;;8.15;4.55;;;;;;;;;;776654;179;990385;-73
2022/05/10 11:41:30;;;;;;;8.77;4.50;;;;;;;;;;772243;178;918740;-69
2022/05/10 11:44:01;;;;;;;8.40;5.00;;;;;;;;;;773666;179;921030;-72
2022/05/10 11:46:41;;;;;;;5.87;4.10;;;;;;;;;;781862;178;919083;-73
2022/05/10 11:49:10;;;;;;;8.50;4.33;;;;;;;;;;766051;181;918274;-72
2022/05/10 11:51:39;;;;;;;8.10;5.20;;;;;;;;;;779251;179;919049;-74
2022/05/10 11:54:20;;;;;;;10.20;4.43;;;;;;;;;;774630;178;921080;-74
2022/05/10 11:56:46;;;;;;;8.40;4.60;;;;;;;;;;773849;178;909789;-73
2022/05/10 11:59:14;;;;;;;7.43;4.57;;;;;;;;;;775794;179;964745;-71
2022/05/10 12:01:43;;;;;;;6.40;4.50;;;;;;;;;;781936;180;816333;-72
2022/05/10 12:04:09;;;;;;;10.60;5.33;;;;;;;;;;763509;180;919360;-72
2022/05/10 12:06:35;;;;;;;9.45;5.35;;;;;;;;;;776531;180;919618;-72
2022/05/10 12:09:00;;;;;;;7.80;4.60;;;;;;;;;;775640;178;920555;-73
2022/05/10 12:11:43;;;;;;;12.60;5.43;;;;;;;;;;771174;180;815916;-74
2022/05/10 12:22:00;;;;;;;11.77;5.00;;;;;;;;;;776812;178;918607;-71
2022/05/10 12:24:26;;;;;;;10.43;4.43;;;;;;;;;;772906;180;919428;-72
2022/05/10 12:26:52;;;;;;;11.77;5.20;;;;;;;;;;780739;179;816439;-71
2022/05/10 12:29:24;;;;;;;11.17;4.70;;;;;;;;;;774949;179;919299;-70
2022/05/10 12:31:53;;;;;;;7.20;4.40;;;;;;;;;;775327;180;918068;-73
2022/05/10 12:34:35;;;;;;;11.60;5.53;;;;;;;;;;775578;179;817570;-72
2022/05/10 12:37:07;;;;;;;9.67;5.93;;;;;;;;;;773873;179;918696;-73
2022/05/10 12:39:33;;;;;;;8.67;6.00;;;;;;;;;;781061;178;917757;-73
2022/05/10 12:42:01;;;;;;;7.30;4.10;;;;;;;;;;775048;180;918333;-74
2022/05/10 12:44:40;;;;;;;9.40;4.33;;;;;;;;;;776048;179;919090;-73
2022/05/10 12:47:23;;;;;;;6.93;4.53;;;;;;;;;;775841;179;919421;-73
2022/05/10 12:50:07;;;;;;;12.13;5.07;;;;;;;;;;772508;179;919737;-72
2022/05/10 12:52:40;;;;;;;8.80;4.17;;;;;;;;;;770365;179;933822;-72
2022/05/10 12:55:06;;;;;;;12.68;5.25;;;;;;;;;;770844;179;919264;-72
2022/05/10 12:57:47;;;;;;;6.70;5.03;;;;;;;;;;781817;178;919353;-73
2022/05/10 13:00:13;;;;;;;9.30;5.40;;;;;;;;;;778271;180;920332;-70
2022/05/10 13:02:39;;;;;;;13.23;5.70;;;;;;;;;;778302;179;919295;-72
2022/05/10 13:05:05;;;;;;;5.68;4.35;;;;;;;;;;774166;179;919262;-72
2022/05/10 13:07:44;;;;;;;11.23;5.93;;;;;;;;;;781731;179;919359;-71
2022/05/10 13:10:10;;;;;;;9.00;4.53;;;;;;;;;;783301;179;717751;-74
2022/05/10 13:12:37;;;;;;;8.97;4.70;;;;;;;;;;775593;180;874617;-73
2022/05/10 13:15:13;;;;;;;14.53;4.50;;;;;;;;;;777552;179;919459;-73
2022/05/10 13:17:38;;;;;;;10.33;4.40;;;;;;;;;;774318;179;856452;-74
2022/05/10 13:20:08;;;;;;;9.60;5.00;;;;;;;;;;781337;179;919189;-73
2022/05/10 13:22:32;;;;;;;9.50;5.33;;;;;;;;;;777557;179;913049;-74
2022/05/10 13:25:00;;;;;;;10.73;4.60;;;;;;;;;;775104;179;919420;-72
2022/05/10 13:27:26;;;;;;;9.77;4.83;;;;;;;;;;782205;179;818319;-73
2022/05/10 13:29:52;;;;;;;18.13;6.67;;;;;;;;;;780403;180;884002;-72
2022/05/10 13:32:23;;;;;;;6.73;4.13;;;;;;;;;;775354;178;919120;-73
2022/05/10 13:34:49;;;;;;;11.70;4.23;;;;;;;;;;773862;179;944220;-72
2022/05/10 13:37:20;;;;;;;8.23;4.20;;;;;;;;;;779219;177;918762;-72
2022/05/10 13:39:46;;;;;;;7.80;4.20;;;;;;;;;;779148;177;815998;-71
2022/05/10 13:42:12;;;;;;;8.30;4.20;;;;;;;;;;779311;179;629955;-71
2022/05/10 13:44:38;;;;;;;7.63;4.67;;;;;;;;;;777367;178;625452;-73
2022/05/10 13:47:04;;;;;;;9.37;4.60;;;;;;;;;;785477;180;637747;-74
2022/05/10 13:49:30;;;;;;;14.70;4.90;;;;;;;;;;774268;179;621261;-74
2022/05/10 13:51:55;;;;;;;11.83;4.90;;;;;;;;;;780730;180;614620;-74
2022/05/10 13:54:23;;;;;;;7.27;4.23;;;;;;;;;;780836;177;632402;-73
2022/05/10 13:56:50;;;;;;;9.93;5.30;;;;;;;;;;784346;177;619826;-75
2022/05/10 13:59:15;;;;;;;12.00;5.10;;;;;;;;;;780146;177;629045;-73
2022/05/10 14:01:41;;;;;;;8.37;4.33;;;;;;;;;;779224;179;632784;-75
2022/05/10 14:04:06;;;;;;;7.03;3.70;;;;;;;;;;776937;179;624986;-74
2022/05/10 14:06:33;;;;;;;5.83;4.13;;;;;;;;;;780147;177;639708;-76
2022/05/10 14:09:00;;;;;;;8.97;4.07;;;;;;;;;;782898;178;626268;-74
2022/05/10 14:11:24;;;;;;;6.13;4.20;;;;;;;;;;786700;177;622989;-73
2022/05/10 14:13:51;;;;;;;9.20;5.40;;;;;;;;;;783258;179;631020;-74
2022/05/10 14:16:22;;;;;;;6.43;4.23;;;;;;;;;;783706;179;643264;-74
2022/05/10 14:18:48;;;;;;;7.23;3.93;;;;;;;;;;777825;179;626656;-74
2022/05/10 14:21:17;;;;;;;12.23;4.60;;;;;;;;;;761576;180;617133;-74
2022/05/10 14:23:42;;;;;;;11.30;5.70;;;;;;;;;;766248;179;630052;-73
2022/05/10 14:26:27;;;;;;;11.33;4.60;;;;;;;;;;777466;179;630161;-74
2022/05/10 14:28:54;;;;;;;15.23;4.13;;;;;;;;;;779464;177;636134;-73
2022/05/10 14:31:19;;;;;;;8.50;3.93;;;;;;;;;;781069;178;623709;-73
2022/05/10 14:33:45;;;;;;;7.10;4.70;;;;;;;;;;778480;179;646961;-74
2022/05/10 14:36:11;;;;;;;10.70;4.97;;;;;;;;;;778817;179;623921;-72